Keller, VA (23401)

3:47 PM EDT on June 30, 2015 (GMT -0400)
Accomack County | | Change Station
CLOSE
Current Station
Airport
Location: Melfa,
Elevation: 46 ft
Nearby Weather Stations

Elev 46 ft 37.65 °N, 75.76 °W | Updated 12 minutes ago

Clear
Clear
86 °F
Feels Like 92 °F
N
15
Wind Variable Wind from South
Gusts 21 mph

Today
High -- | Low -- °F
--% Chance of Precip.
Yesterday
High -- | Low -- °F
Precip. -- in
5:44 AM 8:28 PM
Waxing Gibbous, 98% visible
Pressure 29.88 in
Visibility 10.0 miles
Clouds Clear
Heat Index 92 °F
Dew Point 72 °F
Humidity 62%
Rainfall 0.00 in
Snow Depth Not available.
UV 9 out of 12
Pollen 3.50 out of 12
Air Quality Not available.
Flu Activity Sporadic
METAR KMFV 301935Z AUTO 18013G18KT 10SM CLR 30/22 A2988 RMK AO2 PNO TSNO

More Conditions Fewer Conditions

Pressure 29.88 in
Visibility 10.0 miles
Clouds Clear
Heat Index 92 °F
Dew Point 72 °F
Humidity 62%
Rainfall 0.00 in
Snow Depth Not available.
UV 9 out of 12
Pollen 3.50 out of 12
Air Quality Not available.
Flu Activity Sporadic
METAR KMFV 301935Z AUTO 18013G18KT 10SM CLR 30/22 A2988 RMK AO2 PNO TSNO

More Conditions Fewer Conditions

10-Day Weather Forecast

×

Almanac

Astronomy

Jun. 30, 2015 Rise Set
Actual Time
Civil Twilight
Nautical Twilight
Astronomical Twilight
Moon
Length of Visible Light
Length of Day
Tomorrow will be .
, % of the Moon is Illuminated

Today's Extremes

State Highs State Lows

Community

WunderPhotos

Upload Photos

1,834,067 photos uploaded!

WunderBlogs® & News

Nearby

Air Quality

  Air Quality AQ Index Pollutant
Not available.

Snow Depth

Station Depth Elevation

Earthquake Activity

City Distance Mag. Time & Date
Minimum magnitude displayed is 2.5.

Coastal Water Temperatures

Place Temperature

Stations

Nearby Weather Stations

Station Location Temp. Windchill Dew Point Humidity Wind Precip. Elev Updated Type